createdAt,value
2017-11-18T00:00:19.478Z,83.45
2017-11-18T00:01:19.490Z,83.07
2017-11-18T00:02:19.221Z,83.73
2017-11-18T00:03:19.509Z,83.36
2017-11-18T00:04:19.530Z,83.54
2017-11-18T00:05:19.534Z,83.54
2017-11-18T00:06:19.541Z,82.88
2017-11-18T00:07:19.555Z,83.64
2017-11-18T00:08:19.568Z,83.26
2017-11-18T00:09:19.308Z,83.26
2017-11-18T00:10:19.588Z,83.26
2017-11-18T00:11:19.606Z,83.26
2017-11-18T00:12:19.615Z,83.16
2017-11-18T00:13:19.355Z,83.26
2017-11-18T00:14:19.644Z,83.26
2017-11-18T00:15:19.651Z,83.26
2017-11-18T00:16:19.670Z,83.16
2017-11-18T00:17:19.677Z,83.26
2017-11-18T00:18:19.417Z,83.16
2017-11-18T00:19:19.704Z,83.16
2017-11-18T00:20:19.714Z,83.07
2017-11-18T00:21:19.726Z,83.26
2017-11-18T00:22:19.750Z,83.16
2017-11-18T00:23:19.478Z,83.16
2017-11-18T00:24:19.768Z,83.16
2017-11-18T00:25:19.777Z,83.26
2017-11-18T00:26:19.788Z,83.36
2017-11-18T00:27:19.799Z,83.07
2017-11-18T00:28:19.821Z,83.07
2017-11-18T00:29:19.832Z,83.07
2017-11-18T00:30:19.836Z,83.16
2017-11-18T00:31:19.856Z,83.16
2017-11-18T00:32:19.862Z,83.73
2017-11-18T00:33:19.876Z,83.26
2017-11-18T00:34:19.883Z,83.64
2017-11-18T00:35:19.896Z,83.45
2017-11-18T00:36:19.903Z,83.73
2017-11-18T00:37:19.928Z,83.16
2017-11-18T00:38:19.661Z,83.07
2017-11-18T00:39:19.945Z,83.26
2017-11-18T00:40:19.959Z,83.16
2017-11-18T00:41:19.979Z,83.16
2017-11-18T00:42:19.987Z,83.54
2017-11-18T00:43:20.015Z,83.26
2017-11-18T00:44:20.003Z,83.16
2017-11-18T00:45:20.020Z,83.26
2017-11-18T00:46:19.763Z,83.07
2017-11-18T00:47:20.047Z,83.26
2017-11-18T00:48:20.058Z,83.36
2017-11-18T00:49:20.080Z,83.54
2017-11-18T00:50:20.079Z,83.16
2017-11-18T00:51:20.091Z,83.54
2017-11-18T00:52:20.141Z,83.54
2017-11-18T00:53:20.113Z,82.97
2017-11-18T00:54:19.856Z,83.36
2017-11-18T00:55:20.139Z,83.36
2017-11-18T00:56:20.154Z,83.26
2017-11-18T00:57:20.166Z,83.16
2017-11-18T00:58:20.180Z,83.36
2017-11-18T00:59:20.185Z,83.36
2017-11-18T01:00:20.204Z,83.26
2017-11-18T01:01:19.951Z,83.36
2017-11-18T01:02:20.223Z,83.16
2017-11-18T01:03:20.249Z,83.26
2017-11-18T01:04:19.976Z,83.45
2017-11-18T01:05:19.994Z,83.07
2017-11-18T01:06:20.002Z,83.54
2017-11-18T01:07:20.284Z,83.54
2017-11-18T01:08:20.304Z,83.16
2017-11-18T01:09:20.306Z,83.26
2017-11-18T01:10:20.322Z,83.36
2017-11-18T01:11:20.060Z,83.36
2017-11-18T01:12:20.073Z,83.07
2017-11-18T01:13:20.368Z,83.26
2017-11-18T01:14:20.370Z,83.26
2017-11-18T01:15:20.380Z,83.16
2017-11-18T01:16:20.388Z,83.16
2017-11-18T01:17:20.132Z,83.26
2017-11-18T01:18:20.438Z,83.07
2017-11-18T01:19:20.428Z,83.07
2017-11-18T01:20:20.448Z,83.73
2017-11-18T01:21:20.451Z,83.73
2017-11-18T01:22:20.460Z,83.07
2017-11-18T01:23:20.471Z,83.16
2017-11-18T01:24:20.497Z,83.16
2017-11-18T01:25:20.495Z,83.16
2017-11-18T01:26:20.513Z,83.07
2017-11-18T01:27:20.523Z,83.26
2017-11-18T01:28:20.539Z,83.16
2017-11-18T01:29:20.546Z,83.07
2017-11-18T01:30:20.563Z,83.92
2017-11-18T01:31:20.566Z,83.36
2017-11-18T01:32:20.585Z,83.45
2017-11-18T01:33:20.601Z,83.73
2017-11-18T01:34:20.603Z,83.54
2017-11-18T01:35:20.618Z,83.36
2017-11-18T01:36:20.625Z,83.54
2017-11-18T01:37:20.636Z,82.97
2017-11-18T01:38:20.651Z,83.16
2017-11-18T01:39:20.670Z,83.45
2017-11-18T01:40:20.672Z,83.16
2017-11-18T01:41:20.689Z,82.88
2017-11-18T01:42:20.429Z,82.69
2017-11-18T01:43:20.713Z,82.88
2017-11-18T01:44:20.453Z,83.16
2017-11-18T01:45:20.740Z,82.78
2017-11-18T01:46:20.474Z,82.69
2017-11-18T01:47:20.765Z,82.4
2017-11-18T01:48:20.805Z,82.78
2017-11-18T01:49:20.789Z,82.88
2017-11-18T01:50:20.794Z,83.16
2017-11-18T01:51:20.806Z,83.07
2017-11-18T01:52:20.816Z,83.07
2017-11-18T01:53:20.831Z,83.45
2017-11-18T01:54:20.847Z,83.03
2017-11-18T01:55:20.862Z,83.03
2017-11-18T01:56:20.878Z,83.16
2017-11-18T01:57:20.881Z,83.22
2017-11-18T01:58:20.903Z,83.26
2017-11-18T01:59:20.908Z,82.84
2017-11-18T02:00:20.655Z,83.54
2017-11-18T02:01:20.924Z,83.64
2017-11-18T02:02:20.939Z,83.16
2017-11-18T02:03:20.958Z,83.07
2017-11-18T02:04:20.990Z,83.16
2017-11-18T02:05:20.987Z,83.54
2017-11-18T02:06:20.992Z,83.16
2017-11-18T02:07:20.998Z,83.36
2017-11-18T02:08:21.007Z,83.07
2017-11-18T02:09:21.052Z,83.16
2017-11-18T02:10:20.762Z,83.36
2017-11-18T02:11:21.045Z,83.26
2017-11-18T02:12:20.785Z,83.36
2017-11-18T02:13:21.069Z,83.36
2017-11-18T02:14:21.081Z,84.01
2017-11-18T02:15:20.820Z,83.22
2017-11-18T02:16:21.106Z,82.97
2017-11-18T02:17:21.125Z,83.16
2017-11-18T02:18:21.129Z,83.45
2017-11-18T02:19:20.866Z,83.36
2017-11-18T02:20:20.882Z,83.26
2017-11-18T02:21:20.892Z,83.07
2017-11-18T02:22:21.173Z,83.36
2017-11-18T02:23:21.182Z,83.78
2017-11-18T02:24:21.197Z,83.54
2017-11-18T02:25:20.937Z,83.36
2017-11-18T02:26:21.217Z,83.16
2017-11-18T02:27:21.234Z,83.26
2017-11-18T02:28:21.241Z,83.26
2017-11-18T02:29:21.257Z,83.16
2017-11-18T02:30:21.005Z,83.07
2017-11-18T02:31:21.015Z,83.16
2017-11-18T02:32:21.293Z,83.16
2017-11-18T02:33:21.302Z,83.26
2017-11-18T02:34:21.042Z,83.26
2017-11-18T02:35:21.325Z,83.26
2017-11-18T02:36:21.336Z,83.26
2017-11-18T02:37:21.368Z,83.07
2017-11-18T02:38:21.087Z,83.45
2017-11-18T02:39:21.390Z,83.64
2017-11-18T02:40:21.390Z,83.36
2017-11-18T02:41:21.397Z,83.26
2017-11-18T02:42:21.408Z,83.16
2017-11-18T02:43:21.154Z,83.16
2017-11-18T02:44:21.438Z,83.16
2017-11-18T02:45:21.443Z,83.26
2017-11-18T02:46:21.455Z,83.16
2017-11-18T02:47:21.471Z,83.07
2017-11-18T02:48:21.621Z,82.97
2017-11-18T02:49:21.498Z,83.16
2017-11-18T02:50:21.232Z,83.26
2017-11-18T02:51:21.513Z,83.26
2017-11-18T02:52:21.257Z,83.07
2017-11-18T02:53:21.540Z,83.54
2017-11-18T02:54:21.552Z,83.26
2017-11-18T02:55:21.569Z,83.45
2017-11-18T02:56:21.575Z,83.45
2017-11-18T02:57:21.838Z,83.45
2017-11-18T02:58:21.606Z,83.07
2017-11-18T02:59:21.605Z,83.36
2017-11-18T03:00:21.622Z,83.54
2017-11-18T03:01:21.629Z,83.45
2017-11-18T03:02:21.681Z,83.54
2017-11-18T03:03:21.649Z,83.45
2017-11-18T03:04:21.667Z,83.36
2017-11-18T03:05:21.674Z,83.45
2017-11-18T03:06:21.416Z,83.54
2017-11-18T03:07:21.698Z,83.64
2017-11-18T03:08:21.716Z,83.07
2017-11-18T03:09:21.731Z,83.16
2017-11-18T03:10:21.734Z,83.26
2017-11-18T03:11:21.745Z,83.16
2017-11-18T03:12:21.759Z,83.26
2017-11-18T03:13:21.771Z,83.07
2017-11-18T03:14:21.516Z,83.92
2017-11-18T03:15:21.794Z,83.45
2017-11-18T03:16:21.532Z,83.64
2017-11-18T03:17:21.819Z,83.64
2017-11-18T03:18:21.838Z,83.45
2017-11-18T03:19:21.843Z,83.07
2017-11-18T03:20:21.859Z,83.54
2017-11-18T03:21:21.864Z,83.36
2017-11-18T03:22:21.875Z,83.26
2017-11-18T03:23:21.889Z,83.36
2017-11-18T03:24:21.900Z,83.26
2017-11-18T03:25:21.913Z,83.54
2017-11-18T03:26:21.923Z,83.54
2017-11-18T03:27:21.940Z,83.54
2017-11-18T03:28:21.956Z,83.54
2017-11-18T03:29:21.955Z,83.45
2017-11-18T03:30:21.985Z,83.54
2017-11-18T03:31:21.985Z,83.36
2017-11-18T03:32:21.722Z,83.26
2017-11-18T03:33:21.744Z,83.16
2017-11-18T03:34:22.018Z,83.36
2017-11-18T03:35:21.758Z,83.26
2017-11-18T03:36:22.037Z,83.45
2017-11-18T03:37:22.050Z,83.45
2017-11-18T03:38:22.064Z,83.36
2017-11-18T03:39:22.072Z,83.36
2017-11-18T03:40:21.825Z,83.45
2017-11-18T03:41:22.098Z,83.64
2017-11-18T03:42:22.111Z,83.73
2017-11-18T03:43:22.120Z,83.16
2017-11-18T03:44:22.132Z,83.07
2017-11-18T03:45:22.152Z,83.64
2017-11-18T03:46:22.157Z,83.45
2017-11-18T03:47:22.169Z,83.36
2017-11-18T03:48:22.185Z,82.97
2017-11-18T03:49:22.193Z,83.26
2017-11-18T03:50:21.932Z,83.26
2017-11-18T03:51:22.217Z,83.26
2017-11-18T03:52:22.226Z,83.16
2017-11-18T03:53:22.055Z,83.16
2017-11-18T03:54:22.261Z,83.64
2017-11-18T03:55:22.264Z,83.54
2017-11-18T03:56:22.277Z,83.73
2017-11-18T03:57:22.286Z,83.36
2017-11-18T03:58:22.296Z,83.45
2017-11-18T03:59:22.306Z,83.36
2017-11-18T04:00:22.328Z,83.45
2017-11-18T04:01:22.334Z,83.45
2017-11-18T04:02:22.348Z,83.45
2017-11-18T04:03:22.358Z,83.45
2017-11-18T04:04:22.371Z,83.64
2017-11-18T04:05:22.108Z,83.83
2017-11-18T04:06:22.121Z,83.16
2017-11-18T04:07:22.402Z,83.26
2017-11-18T04:08:22.417Z,82.97
2017-11-18T04:09:22.156Z,83.07
2017-11-18T04:10:22.438Z,83.36
2017-11-18T04:11:22.179Z,83.26
2017-11-18T04:12:22.461Z,83.16
2017-11-18T04:13:22.470Z,83.07
2017-11-18T04:14:22.218Z,83.26
2017-11-18T04:15:22.507Z,83.54
2017-11-18T04:16:22.510Z,83.54
2017-11-18T04:17:22.532Z,83.36
2017-11-18T04:18:22.535Z,82.97
2017-11-18T04:19:22.554Z,83.07
2017-11-18T04:20:22.285Z,83.16
2017-11-18T04:21:22.568Z,83.36
2017-11-18T04:22:22.583Z,83.26
2017-11-18T04:23:22.593Z,83.16
2017-11-18T04:24:22.333Z,83.07
2017-11-18T04:25:22.344Z,83.16
2017-11-18T04:26:22.358Z,83.07
2017-11-18T04:27:22.639Z,83.26
2017-11-18T04:28:22.651Z,83.07
2017-11-18T04:29:22.665Z,83.54
2017-11-18T04:30:22.676Z,82.97
2017-11-18T04:31:22.417Z,82.97
2017-11-18T04:32:22.703Z,83.26
2017-11-18T04:33:22.711Z,82.88
2017-11-18T04:34:22.733Z,83.45
2017-11-18T04:35:22.738Z,82.93
2017-11-18T04:36:22.471Z,83.03
2017-11-18T04:37:22.755Z,83.4
2017-11-18T04:38:22.768Z,83.12
2017-11-18T04:39:22.777Z,83.45
2017-11-18T04:40:22.790Z,83.03
2017-11-18T04:41:22.801Z,82.97
2017-11-18T04:42:22.821Z,82.93
2017-11-18T04:43:22.826Z,82.84
2017-11-18T04:44:22.839Z,82.93
2017-11-18T04:45:22.577Z,83.12
2017-11-18T04:46:22.894Z,82.93
2017-11-18T04:47:22.872Z,82.93
2017-11-18T04:48:22.902Z,83.31
2017-11-18T04:49:22.896Z,83.31
2017-11-18T04:50:22.634Z,83.4
2017-11-18T04:51:22.919Z,83.12
2017-11-18T04:52:22.930Z,83.31
2017-11-18T04:53:22.942Z,83.22
2017-11-18T04:54:22.687Z,83.31
2017-11-18T04:55:22.969Z,83.12
2017-11-18T04:56:22.973Z,82.93
2017-11-18T04:57:22.997Z,82.93
2017-11-18T04:58:22.997Z,82.93
2017-11-18T04:59:23.015Z,83.03
2017-11-18T05:00:23.025Z,83.03
2017-11-18T05:01:23.053Z,83.03
2017-11-18T05:02:22.774Z,82.84
2017-11-18T05:03:23.062Z,83.12
2017-11-18T05:04:23.077Z,83.22
2017-11-18T05:05:22.808Z,83.12
2017-11-18T05:06:23.093Z,82.84
2017-11-18T05:07:23.105Z,82.84
2017-11-18T05:08:23.131Z,82.74
2017-11-18T05:09:23.126Z,82.74
2017-11-18T05:10:23.288Z,82.74
2017-11-18T05:11:23.152Z,82.74
2017-11-18T05:12:23.160Z,82.84
2017-11-18T05:13:23.177Z,82.84
2017-11-18T05:14:23.187Z,83.03
2017-11-18T05:15:22.928Z,83.22
2017-11-18T05:16:23.205Z,83.12
2017-11-18T05:17:23.232Z,83.03
2017-11-18T05:18:23.231Z,82.93
2017-11-18T05:19:23.245Z,82.93
2017-11-18T05:20:22.984Z,83.12
2017-11-18T05:21:23.289Z,82.93
2017-11-18T05:22:23.278Z,82.93
2017-11-18T05:23:23.292Z,82.93
2017-11-18T05:24:23.311Z,83.03
2017-11-18T05:25:23.313Z,83.31
2017-11-18T05:26:23.325Z,83.12
2017-11-18T05:27:23.341Z,82.93
2017-11-18T05:28:23.350Z,82.93
2017-11-18T05:29:23.360Z,82.93
2017-11-18T05:30:23.372Z,82.93
2017-11-18T05:31:23.379Z,83.4
2017-11-18T05:32:23.391Z,83.12
2017-11-18T05:33:23.402Z,83.22
2017-11-18T05:34:23.414Z,83.12
2017-11-18T05:35:23.430Z,83.03
2017-11-18T05:36:23.435Z,83.12
2017-11-18T05:37:23.455Z,83.12
2017-11-18T05:38:23.467Z,83.31
2017-11-18T05:39:23.481Z,83.12
2017-11-18T05:40:23.209Z,83.31
2017-11-18T05:41:23.497Z,83.12
2017-11-18T05:42:23.515Z,83.03
2017-11-18T05:43:23.523Z,83.12
2017-11-18T05:44:23.531Z,83.22
2017-11-18T05:45:23.268Z,83.12
2017-11-18T05:46:23.556Z,83.22
2017-11-18T05:47:23.562Z,83.03
2017-11-18T05:48:23.579Z,83.03
2017-11-18T05:49:23.588Z,83.03
2017-11-18T05:50:23.609Z,83.03
2017-11-18T05:51:23.606Z,83.59
2017-11-18T05:52:23.622Z,83.69
2017-11-18T05:53:23.629Z,83.69
2017-11-18T05:54:23.645Z,83.69
2017-11-18T05:55:23.654Z,83.31
2017-11-18T05:56:23.670Z,83.4
2017-11-18T05:57:23.690Z,83.59
2017-11-18T05:58:23.419Z,83.12
2017-11-18T05:59:23.710Z,83.31
2017-11-18T06:00:23.714Z,83.12
2017-11-18T06:01:23.723Z,83.69
2017-11-18T06:02:23.464Z,83.69
2017-11-18T06:03:23.745Z,83.78
2017-11-18T06:04:23.485Z,83.5
2017-11-18T06:05:23.766Z,83.69
2017-11-18T06:06:23.835Z,83.31
2017-11-18T06:07:23.790Z,83.4
2017-11-18T06:08:23.807Z,83.12
2017-11-18T06:09:23.811Z,83.5
2017-11-18T06:10:23.826Z,83.31
2017-11-18T06:11:23.836Z,83.31
2017-11-18T06:12:23.581Z,83.4
2017-11-18T06:13:23.858Z,83.59
2017-11-18T06:14:23.887Z,83.5
2017-11-18T06:15:23.897Z,83.31
2017-11-18T06:16:23.894Z,83.4
2017-11-18T06:17:23.633Z,83.31
2017-11-18T06:18:23.918Z,83.4
2017-11-18T06:19:23.929Z,83.31
2017-11-18T06:20:23.936Z,83.4
2017-11-18T06:21:23.946Z,83.69
2017-11-18T06:22:23.690Z,83.59
2017-11-18T06:23:23.975Z,83.31
2017-11-18T06:24:23.983Z,83.4
2017-11-18T06:25:23.994Z,83.31
2017-11-18T06:26:24.009Z,83.31
2017-11-18T06:27:24.020Z,83.31
2017-11-18T06:28:24.026Z,83.5
2017-11-18T06:29:24.043Z,83.4
2017-11-18T06:30:24.059Z,83.03
2017-11-18T06:31:24.073Z,83.5
2017-11-18T06:32:24.073Z,83.31
2017-11-18T06:33:23.817Z,83.59
2017-11-18T06:34:24.134Z,83.31
2017-11-18T06:35:24.106Z,83.4
2017-11-18T06:36:24.123Z,83.69
2017-11-18T06:37:24.135Z,83.5
2017-11-18T06:38:24.143Z,83.78
2017-11-18T06:39:23.886Z,83.59
2017-11-18T06:40:24.166Z,83.03
2017-11-18T06:41:24.176Z,83.69
2017-11-18T06:42:24.190Z,83.5
2017-11-18T06:43:23.928Z,83.59
2017-11-18T06:44:24.210Z,83.4
2017-11-18T06:45:24.223Z,83.59
2017-11-18T06:46:24.271Z,83.12
2017-11-18T06:47:24.246Z,83.78
2017-11-18T06:48:23.986Z,83.5
2017-11-18T06:49:24.263Z,83.59
2017-11-18T06:50:24.282Z,83.31
2017-11-18T06:51:24.287Z,83.4
2017-11-18T06:52:24.303Z,83.4
2017-11-18T06:53:24.312Z,83.22
2017-11-18T06:54:24.327Z,83.31
2017-11-18T06:55:24.337Z,83.5
2017-11-18T06:56:24.347Z,83.78
2017-11-18T06:57:24.358Z,83.4
2017-11-18T06:58:24.099Z,83.12
2017-11-18T06:59:24.381Z,83.5
2017-11-18T07:00:24.120Z,83.31
2017-11-18T07:01:24.404Z,83.4
2017-11-18T07:02:24.417Z,83.22
2017-11-18T07:03:24.155Z,83.31
2017-11-18T07:04:24.439Z,83.22
2017-11-18T07:05:24.176Z,83.59
2017-11-18T07:06:24.461Z,83.59
2017-11-18T07:07:24.474Z,83.59
2017-11-18T07:08:24.491Z,83.5
2017-11-18T07:09:24.225Z,83.4
2017-11-18T07:10:24.514Z,83.5
2017-11-18T07:11:24.528Z,83.59
2017-11-18T07:12:24.526Z,83.12
2017-11-18T07:13:24.540Z,83.22
2017-11-18T07:14:24.551Z,83.69
2017-11-18T07:15:24.566Z,83.97
2017-11-18T07:16:24.571Z,83.69
2017-11-18T07:17:24.582Z,83.97
2017-11-18T07:18:24.592Z,83.78
2017-11-18T07:19:24.608Z,83.5
2017-11-18T07:20:24.618Z,83.22
2017-11-18T07:21:24.629Z,83.5
2017-11-18T07:22:24.649Z,83.5
2017-11-18T07:23:24.654Z,83.88
2017-11-18T07:24:24.665Z,83.4
2017-11-18T07:25:24.673Z,83.31
2017-11-18T07:26:24.683Z,83.59
2017-11-18T07:27:24.697Z,83.5
2017-11-18T07:28:24.708Z,83.4
2017-11-18T07:29:24.721Z,83.5
2017-11-18T07:30:24.730Z,83.59
2017-11-18T07:31:24.472Z,83.69
2017-11-18T07:32:24.759Z,83.59
2017-11-18T07:33:24.764Z,83.03
2017-11-18T07:34:24.773Z,83.12
2017-11-18T07:35:24.515Z,83.22
2017-11-18T07:36:24.530Z,83.12
2017-11-18T07:37:24.831Z,83.5
2017-11-18T07:38:24.830Z,83.5
2017-11-18T07:39:24.848Z,83.4
2017-11-18T07:40:24.840Z,83.4
2017-11-18T07:41:24.583Z,83.5
2017-11-18T07:42:24.868Z,83.31
2017-11-18T07:43:24.611Z,83.4
2017-11-18T07:44:24.890Z,83.4
2017-11-18T07:45:24.910Z,83.59
2017-11-18T07:46:24.909Z,83.4
2017-11-18T07:47:24.929Z,83.31
2017-11-18T07:48:24.940Z,83.4
2017-11-18T07:49:24.674Z,83.12
2017-11-18T07:50:24.964Z,83.4
2017-11-18T07:51:24.973Z,83.5
2017-11-18T07:52:24.983Z,83.31
2017-11-18T07:53:24.991Z,83.31
2017-11-18T07:54:25.001Z,83.31
2017-11-18T07:55:25.013Z,83.31
2017-11-18T07:56:24.759Z,83.22
2017-11-18T07:57:25.039Z,83.4
2017-11-18T07:58:25.047Z,83.31
2017-11-18T07:59:25.059Z,83.5
2017-11-18T08:00:25.084Z,83.12
2017-11-18T08:01:25.083Z,83.59
2017-11-18T08:02:25.091Z,83.4
2017-11-18T08:03:24.836Z,83.31
2017-11-18T08:04:25.116Z,83.31
2017-11-18T08:05:25.126Z,83.5
2017-11-18T08:06:25.146Z,83.69
2017-11-18T08:07:24.884Z,83.59
2017-11-18T08:08:25.161Z,83.31
2017-11-18T08:09:25.176Z,83.16
2017-11-18T08:10:25.183Z,83.36
2017-11-18T08:11:24.929Z,83.36
2017-11-18T08:12:25.207Z,83.54
2017-11-18T08:13:25.223Z,83.16
2017-11-18T08:14:24.963Z,83.45
2017-11-18T08:15:25.243Z,83.26
2017-11-18T08:16:25.254Z,83.26
2017-11-18T08:17:25.266Z,83.16
2017-11-18T08:18:25.287Z,83.36
2017-11-18T08:19:25.289Z,83.26
2017-11-18T08:20:25.301Z,83.26
2017-11-18T08:21:25.044Z,83.54
2017-11-18T08:22:25.325Z,83.26
2017-11-18T08:23:25.382Z,83.64
2017-11-18T08:24:25.347Z,83.64
2017-11-18T08:25:25.361Z,83.54
2017-11-18T08:26:25.372Z,83.26
2017-11-18T08:27:25.110Z,83.54
2017-11-18T08:28:25.397Z,83.36
2017-11-18T08:29:25.135Z,83.26
2017-11-18T08:30:25.143Z,83.54
2017-11-18T08:31:25.427Z,83.36
2017-11-18T08:32:25.435Z,83.36
2017-11-18T08:33:25.463Z,83.07
2017-11-18T08:34:25.459Z,83.64
2017-11-18T08:35:25.493Z,83.36
2017-11-18T08:36:25.482Z,83.54
2017-11-18T08:37:25.500Z,83.64
2017-11-18T08:38:25.509Z,83.83
2017-11-18T08:39:25.521Z,83.64
2017-11-18T08:40:25.537Z,83.07
2017-11-18T08:41:25.542Z,83.16
2017-11-18T08:42:25.553Z,83.07
2017-11-18T08:43:25.573Z,83.45
2017-11-18T08:44:25.594Z,83.45
2017-11-18T08:45:25.587Z,83.54
2017-11-18T08:46:25.605Z,83.45
2017-11-18T08:47:25.611Z,83.36
2017-11-18T08:48:25.625Z,83.64
2017-11-18T08:49:25.643Z,83.64
2017-11-18T08:50:25.664Z,83.45
2017-11-18T08:51:25.658Z,84.3
2017-11-18T08:52:25.401Z,83.45
2017-11-18T08:53:25.690Z,83.36
2017-11-18T08:54:25.703Z,83.45
2017-11-18T08:55:25.703Z,83.45
2017-11-18T08:56:25.732Z,83.45
2017-11-18T08:57:25.729Z,83.54
2017-11-18T08:58:25.739Z,83.16
2017-11-18T08:59:25.754Z,83.26
2017-11-18T09:00:25.763Z,83.07
2017-11-18T09:01:25.780Z,83.54
2017-11-18T09:02:25.795Z,82.88
2017-11-18T09:03:25.530Z,82.97
2017-11-18T09:04:25.814Z,82.97
2017-11-18T09:05:25.823Z,82.97
2017-11-18T09:06:25.834Z,83.64
2017-11-18T09:07:25.850Z,83.54
2017-11-18T09:08:25.858Z,83.73
2017-11-18T09:09:25.884Z,82.97
2017-11-18T09:10:25.884Z,83.07
2017-11-18T09:11:25.900Z,83.07
2017-11-18T09:12:25.906Z,83.07
2017-11-18T09:13:25.914Z,82.78
2017-11-18T09:14:25.932Z,82.97
2017-11-18T09:15:25.676Z,82.78
2017-11-18T09:16:25.951Z,82.69
2017-11-18T09:17:25.694Z,82.69
2017-11-18T09:18:25.979Z,82.5
2017-11-18T09:19:25.993Z,82.97
2017-11-18T09:20:25.999Z,82.88
2017-11-18T09:21:25.743Z,82.88
2017-11-18T09:22:26.051Z,82.78
2017-11-18T09:23:26.037Z,82.69
2017-11-18T09:24:26.046Z,82.78
2017-11-18T09:25:26.070Z,82.88
2017-11-18T09:26:26.071Z,82.97
2017-11-18T09:27:25.811Z,82.5
2017-11-18T09:28:25.825Z,82.21
2017-11-18T09:29:26.111Z,82.12
2017-11-18T09:30:26.118Z,82.03
2017-11-18T09:31:25.858Z,82.21
2017-11-18T09:32:25.872Z,82.4
2017-11-18T09:33:26.157Z,82.31
2017-11-18T09:34:25.906Z,82.31
2017-11-18T09:35:26.179Z,82.03
2017-11-18T09:36:26.199Z,82.12
2017-11-18T09:37:26.202Z,82.12
2017-11-18T09:38:26.229Z,82.12
2017-11-18T09:39:25.957Z,82.4
2017-11-18T09:40:26.258Z,82.4
2017-11-18T09:41:26.253Z,82.69
2017-11-18T09:42:26.266Z,82.4
2017-11-18T09:43:26.280Z,82.03
2017-11-18T09:44:26.300Z,81.97
2017-11-18T09:45:26.301Z,82.16
2017-11-18T09:46:26.040Z,82.12
2017-11-18T09:47:26.320Z,82.31
2017-11-18T09:48:26.334Z,82.12
2017-11-18T09:49:26.352Z,81.93
2017-11-18T09:50:26.358Z,82.16
2017-11-18T09:51:26.374Z,82.4
2017-11-18T09:52:26.381Z,82.26
2017-11-18T09:53:26.392Z,82.69
2017-11-18T09:54:26.409Z,82.21
2017-11-18T09:55:26.420Z,82.03
2017-11-18T09:56:26.430Z,82.16
2017-11-18T09:57:26.451Z,82.21
2017-11-18T09:58:26.180Z,82.5
2017-11-18T09:59:26.194Z,82.16
2017-11-18T10:00:26.477Z,82.4
2017-11-18T10:01:26.487Z,81.84
2017-11-18T10:02:26.508Z,82.26
2017-11-18T10:03:26.513Z,81.97
2017-11-18T10:04:26.526Z,82.16
2017-11-18T10:05:26.533Z,82.21
2017-11-18T10:06:26.562Z,82.54
2017-11-18T10:07:26.560Z,82.16
2017-11-18T10:08:26.573Z,82.26
2017-11-18T10:09:26.316Z,81.49
2017-11-18T10:10:26.601Z,81.68
2017-11-18T10:11:26.611Z,81.87
2017-11-18T10:12:26.620Z,81.68
2017-11-18T10:13:26.636Z,81.68
2017-11-18T10:14:26.643Z,81.78
2017-11-18T10:15:26.385Z,82.16
2017-11-18T10:16:26.666Z,81.49
2017-11-18T10:17:26.680Z,81.78
2017-11-18T10:18:26.704Z,81.97
2017-11-18T10:19:26.710Z,81.59
2017-11-18T10:20:26.723Z,81.78
2017-11-18T10:21:26.754Z,81.59
2017-11-18T10:22:26.472Z,81.4
2017-11-18T10:23:26.751Z,81.4
2017-11-18T10:24:26.766Z,81.59
2017-11-18T10:25:26.505Z,81.3
2017-11-18T10:26:26.555Z,81.21
2017-11-18T10:27:26.804Z,81.02
2017-11-18T10:28:26.822Z,81.21
2017-11-18T10:29:26.825Z,81.21
2017-11-18T10:30:26.566Z,80.83
2017-11-18T10:31:26.853Z,81.12
2017-11-18T10:32:26.862Z,81.21
2017-11-18T10:33:26.892Z,81.12
2017-11-18T10:34:26.888Z,81.12
2017-11-18T10:35:26.630Z,81.3
2017-11-18T10:36:26.909Z,81.12
2017-11-18T10:37:26.930Z,81.21
2017-11-18T10:38:26.937Z,80.93
2017-11-18T10:39:26.983Z,80.93
2017-11-18T10:40:26.957Z,81.02
2017-11-18T10:41:26.975Z,80.83
2017-11-18T10:42:26.981Z,80.55
2017-11-18T10:43:26.996Z,80.83
2017-11-18T10:44:26.737Z,80.83
2017-11-18T10:45:27.053Z,80.93
2017-11-18T10:46:27.033Z,80.83
2017-11-18T10:47:27.048Z,80.83
2017-11-18T10:48:26.789Z,80.55
2017-11-18T10:49:27.065Z,80.55
2017-11-18T10:50:27.080Z,80.45
2017-11-18T10:51:26.822Z,80.55
2017-11-18T10:52:26.831Z,80.16
2017-11-18T10:53:27.116Z,80.16
2017-11-18T10:54:27.127Z,80.07
2017-11-18T10:55:26.870Z,79.97
2017-11-18T10:56:26.880Z,80.07
2017-11-18T10:57:26.894Z,79.41
2017-11-18T10:58:27.177Z,79.5
2017-11-18T10:59:27.191Z,79.69
2017-11-18T11:00:27.204Z,79.5
2017-11-18T11:01:27.215Z,79.6
2017-11-18T11:02:27.231Z,79.6
2017-11-18T11:03:27.239Z,79.41
2017-11-18T11:04:27.256Z,79.31
2017-11-18T11:05:27.262Z,79.41
2017-11-18T11:06:27.274Z,79.22
2017-11-18T11:07:27.288Z,79.6
2017-11-18T11:08:59.103Z,79.03
2017-11-18T11:09:27.308Z,78.83
2017-11-18T11:10:27.327Z,78.55
2017-11-18T11:11:27.340Z,79.31
2017-11-18T11:12:27.346Z,78.93
2017-11-18T11:13:27.366Z,78.64
2017-11-18T11:14:27.375Z,79.22
2017-11-18T11:15:27.112Z,78.93
2017-11-18T11:16:27.413Z,79.22
2017-11-18T11:17:27.409Z,79.22
2017-11-18T11:18:27.423Z,78.93
2017-11-18T11:20:27.448Z,79.03
2017-11-18T11:21:27.192Z,78.83
2017-11-18T11:22:27.476Z,79.03
2017-11-18T11:23:27.491Z,78.74
2017-11-18T11:24:27.498Z,79.12
2017-11-18T11:25:27.509Z,78.74
2017-11-18T11:26:27.528Z,78.93
2017-11-18T11:27:27.533Z,79.03
2017-11-18T11:28:27.545Z,78.93
2017-11-18T11:29:27.560Z,78.93
2017-11-18T11:30:27.570Z,78.64
2017-11-18T11:31:27.314Z,79.03
2017-11-18T11:32:27.594Z,78.55
2017-11-18T11:33:27.614Z,78.36
2017-11-18T11:34:27.626Z,78.08
2017-11-18T11:35:27.637Z,78.45
2017-11-18T11:36:27.653Z,78.27
2017-11-18T11:37:27.661Z,78.27
2017-11-18T11:38:27.680Z,78.55
2017-11-18T11:39:27.415Z,78.83
2017-11-18T11:40:27.432Z,78.83
2017-11-18T11:41:27.707Z,78.17
2017-11-18T11:42:27.447Z,78.27
2017-11-18T11:43:27.728Z,78.55
2017-11-18T11:44:27.474Z,78.27
2017-11-18T11:45:27.757Z,78.08
2017-11-18T11:46:27.766Z,78.08
2017-11-18T11:47:27.507Z,78.17
2017-11-18T11:48:27.791Z,78.27
2017-11-18T11:49:27.810Z,78.27
2017-11-18T11:50:27.816Z,78.17
2017-11-18T11:51:27.834Z,77.7
2017-11-18T11:52:27.842Z,78.08
2017-11-18T11:53:27.854Z,77.03
2017-11-18T11:54:27.867Z,76.75
2017-11-18T11:55:27.880Z,76.93
2017-11-18T11:56:27.895Z,76.56
2017-11-18T11:57:27.954Z,76.46
2017-11-18T11:58:27.915Z,76.37
2017-11-18T11:59:27.928Z,76.37
2017-11-18T12:00:27.942Z,76.84
2017-11-18T12:01:27.953Z,76.65
2017-11-18T12:02:27.971Z,76.37
2017-11-18T12:03:27.706Z,76.56
2017-11-18T12:04:28.003Z,75.79
2017-11-18T12:05:28.003Z,75.89
2017-11-18T12:06:27.744Z,76.18
2017-11-18T12:07:27.754Z,75.99
2017-11-18T12:08:28.054Z,75.51
2017-11-18T12:09:27.782Z,75.7
2017-11-18T12:10:27.792Z,75.6
2017-11-18T12:11:28.077Z,75.32
2017-11-18T12:12:28.101Z,75.04
2017-11-18T12:13:28.101Z,75.04
2017-11-18T12:14:28.125Z,74.56
2017-11-18T12:15:28.136Z,74.75
2017-11-18T12:16:28.136Z,74.66
2017-11-18T12:17:28.156Z,74.75
2017-11-18T12:18:27.891Z,74.75
2017-11-18T12:19:28.177Z,74.66
2017-11-18T12:20:28.188Z,74.66
2017-11-18T12:21:28.201Z,74.37
2017-11-18T12:22:28.210Z,74.56
2017-11-18T12:23:28.223Z,74.56
2017-11-18T12:24:28.245Z,74.56
2017-11-18T12:25:28.253Z,73.99
2017-11-18T12:26:28.268Z,73.8
2017-11-18T12:27:28.272Z,73.52
2017-11-18T12:28:28.286Z,73.71
2017-11-18T12:29:28.301Z,72.85
2017-11-18T12:30:28.315Z,73.33
2017-11-18T12:31:28.325Z,73.71
2017-11-18T12:32:28.347Z,73.52
2017-11-18T12:33:28.353Z,73.8
2017-11-18T12:34:28.358Z,73.52
2017-11-18T12:35:28.378Z,73.8
2017-11-18T12:36:28.389Z,73.14
2017-11-18T12:37:28.399Z,73.23
2017-11-18T12:38:28.413Z,72.85
2017-11-18T12:39:28.423Z,73.04
2017-11-18T12:40:28.431Z,72.95
2017-11-18T12:41:28.446Z,72.95
2017-11-18T12:42:28.194Z,72.75
2017-11-18T12:43:28.481Z,72.66
2017-11-18T12:44:28.495Z,73.23
2017-11-18T12:45:28.497Z,73.52
2017-11-18T12:46:28.508Z,73.04
2017-11-18T12:47:28.521Z,72.47
2017-11-18T12:48:28.267Z,72.75
2017-11-18T12:49:28.544Z,72.66
2017-11-18T12:50:28.560Z,72.85
2017-11-18T12:51:28.572Z,72.38
2017-11-18T12:52:28.599Z,72.75
2017-11-18T12:53:28.594Z,72.95
2017-11-18T12:54:28.609Z,72.56
2017-11-18T12:55:28.623Z,72.75
2017-11-18T12:56:28.362Z,72.47